createdAt,value
2023-04-06T00:00:17.116Z,68.30
2023-04-06T00:02:43.869Z,68.30
2023-04-06T00:05:10.446Z,67.90
2023-04-06T00:07:37.004Z,68.60
2023-04-06T00:10:03.636Z,69.10
2023-04-06T00:12:30.285Z,68.70
2023-04-06T00:14:56.876Z,67.90
2023-04-06T00:17:23.471Z,70.70
2023-04-06T00:19:50.054Z,70.50
2023-04-06T00:22:16.666Z,70.20
2023-04-06T00:24:43.227Z,70.80
2023-04-06T00:27:09.836Z,70.90
2023-04-06T00:29:36.395Z,70.70
2023-04-06T00:32:03.044Z,70.70
2023-04-06T00:34:29.645Z,71.90
2023-04-06T00:36:56.214Z,72.20
2023-04-06T00:39:22.767Z,71.40
2023-04-06T00:41:49.341Z,71.10
2023-04-06T00:44:15.955Z,70.60
2023-04-06T00:46:42.525Z,70.70
2023-04-06T00:49:09.356Z,70.70
2023-04-06T00:51:36.043Z,70.60
2023-04-06T00:54:02.638Z,70.60
2023-04-06T00:56:29.301Z,70.70
2023-04-06T00:58:55.883Z,70.80
2023-04-06T01:01:22.548Z,70.60
2023-04-06T01:03:49.108Z,70.20
2023-04-06T01:06:15.670Z,69.90
2023-04-06T01:08:42.245Z,70.00
2023-04-06T01:11:08.790Z,69.80
2023-04-06T01:13:35.712Z,69.60
2023-04-06T01:16:02.338Z,69.80
2023-04-06T01:18:28.908Z,70.10
2023-04-06T01:20:55.513Z,70.30
2023-04-06T01:23:22.066Z,71.10
2023-04-06T01:25:48.660Z,70.80
2023-04-06T01:28:15.234Z,70.50
2023-04-06T01:30:41.788Z,70.70
2023-04-06T01:33:08.443Z,70.60
2023-04-06T01:35:35.101Z,71.20
2023-04-06T01:38:01.670Z,70.70
2023-04-06T01:40:28.243Z,70.30
2023-04-06T01:42:54.782Z,70.30
2023-04-06T01:45:21.333Z,70.90
2023-04-06T01:47:47.948Z,71.60
2023-04-06T01:50:14.535Z,71.70
2023-04-06T01:52:41.083Z,72.50
2023-04-06T01:55:07.658Z,73.10
2023-04-06T01:57:34.240Z,72.60
2023-04-06T02:00:00.812Z,72.20
2023-04-06T02:02:27.765Z,71.70
2023-04-06T02:04:54.437Z,71.80
2023-04-06T02:07:20.977Z,71.40
2023-04-06T02:09:47.547Z,71.30
2023-04-06T02:12:14.087Z,71.20
2023-04-06T02:14:40.805Z,71.20
2023-04-06T02:17:07.532Z,71.10
2023-04-06T02:19:34.090Z,70.90
2023-04-06T02:22:00.639Z,71.10
2023-04-06T02:24:27.194Z,70.80
2023-04-06T02:26:53.761Z,71.20
2023-04-06T02:29:20.329Z,71.50
2023-04-06T02:31:46.989Z,71.70
2023-04-06T02:34:13.656Z,71.20
2023-04-06T02:36:40.198Z,71.40
2023-04-06T02:39:06.954Z,70.90
2023-04-06T02:41:33.641Z,71.10
2023-04-06T02:44:00.207Z,71.60
2023-04-06T02:46:26.785Z,71.90
2023-04-06T02:48:55.447Z,72.10
2023-04-06T02:51:22.013Z,72.00
2023-04-06T02:53:48.557Z,72.00
2023-04-06T02:56:15.170Z,71.80
2023-04-06T02:58:41.740Z,71.80
2023-04-06T03:01:08.377Z,72.30
2023-04-06T03:03:35.101Z,72.30
2023-04-06T03:06:01.814Z,72.20
2023-04-06T03:08:28.391Z,72.70
2023-04-06T03:10:55.115Z,72.50
2023-04-06T03:13:21.702Z,72.50
2023-04-06T03:15:48.290Z,72.60
2023-04-06T03:18:15.007Z,72.70
2023-04-06T03:20:41.648Z,73.10
2023-04-06T03:23:08.196Z,72.90
2023-04-06T03:25:34.834Z,72.50
2023-04-06T03:28:01.370Z,72.30
2023-04-06T03:30:27.917Z,72.60
2023-04-06T03:32:54.560Z,72.70
2023-04-06T03:35:21.166Z,72.70
2023-04-06T03:37:47.833Z,73.10
2023-04-06T03:40:14.471Z,72.90
2023-04-06T03:42:41.029Z,73.20
2023-04-06T03:45:07.615Z,73.40
2023-04-06T03:47:34.174Z,72.90
2023-04-06T03:50:00.752Z,72.80
2023-04-06T03:52:27.349Z,72.80
2023-04-06T03:54:53.936Z,72.30
2023-04-06T03:57:20.474Z,72.80
2023-04-06T03:59:47.120Z,72.60
2023-04-06T04:02:13.848Z,72.60
2023-04-06T04:04:40.500Z,74.60
2023-04-06T04:07:07.094Z,74.10
2023-04-06T04:09:33.637Z,73.70
2023-04-06T04:12:00.242Z,73.70
2023-04-06T04:14:27.022Z,74.10
2023-04-06T04:16:53.720Z,73.60
2023-04-06T04:19:20.527Z,73.40
2023-04-06T04:21:47.078Z,74.70
2023-04-06T04:24:13.720Z,74.30
2023-04-06T04:26:40.318Z,73.90
2023-04-06T04:29:07.095Z,75.50
2023-04-06T04:31:33.949Z,75.30
2023-04-06T04:34:00.533Z,74.80
2023-04-06T04:36:27.090Z,76.40
2023-04-06T04:38:53.642Z,76.20
2023-04-06T04:41:20.238Z,75.50
2023-04-06T04:43:46.883Z,75.00
2023-04-06T04:46:13.500Z,74.40
2023-04-06T04:48:40.809Z,74.70
2023-04-06T04:51:07.456Z,75.10
2023-04-06T04:53:34.024Z,75.40
2023-04-06T04:56:00.599Z,75.80
2023-04-06T04:58:27.144Z,75.10
2023-04-06T05:00:54.044Z,76.40
2023-04-06T05:03:20.710Z,76.70
2023-04-06T05:05:47.397Z,75.30
2023-04-06T05:08:13.970Z,76.50
2023-04-06T05:10:40.565Z,76.20
2023-04-06T05:13:07.160Z,75.90
2023-04-06T05:15:33.779Z,75.80
2023-04-06T05:18:00.458Z,75.20
2023-04-06T05:20:27.043Z,74.60
2023-04-06T05:22:53.602Z,74.00
2023-04-06T05:25:20.296Z,74.40
2023-04-06T05:27:47.024Z,74.20
2023-04-06T05:30:14.057Z,74.60
2023-04-06T05:32:40.690Z,75.90
2023-04-06T05:35:07.318Z,75.60
2023-04-06T05:37:34.162Z,74.80
2023-04-06T05:40:00.865Z,75.90
2023-04-06T05:42:27.453Z,74.40
2023-04-06T05:44:54.018Z,73.70
2023-04-06T05:47:20.596Z,73.40
2023-04-06T05:49:47.142Z,72.50
2023-04-06T05:52:13.766Z,72.20
2023-04-06T05:54:40.354Z,73.50
2023-04-06T05:57:06.905Z,73.80
2023-04-06T05:59:33.556Z,73.40
2023-04-06T06:02:00.280Z,73.10
2023-04-06T06:04:26.928Z,72.60
2023-04-06T06:06:53.590Z,72.80
2023-04-06T06:09:20.154Z,72.20
2023-04-06T06:11:47.788Z,71.90
2023-04-06T06:14:14.372Z,71.80
2023-04-06T06:16:41.304Z,71.60
2023-04-06T06:19:08.058Z,70.90
2023-04-06T06:21:34.813Z,70.70
2023-04-06T06:24:01.418Z,69.80
2023-04-06T06:26:27.959Z,69.80
2023-04-06T06:28:54.531Z,69.70
2023-04-06T06:31:21.128Z,69.60
2023-04-06T06:33:47.765Z,69.10
2023-04-06T06:36:14.316Z,68.60
2023-04-06T06:38:40.855Z,68.20
2023-04-06T06:41:07.412Z,68.30
2023-04-06T06:43:33.974Z,68.10
2023-04-06T06:46:00.612Z,68.10
2023-04-06T06:48:27.247Z,68.10
2023-04-06T06:50:53.840Z,68.10
2023-04-06T06:53:20.530Z,68.30
2023-04-06T06:55:47.113Z,68.00
2023-04-06T06:58:13.741Z,68.70
2023-04-06T07:00:40.310Z,68.00
2023-04-06T07:03:06.959Z,67.90
2023-04-06T07:05:33.544Z,68.70
2023-04-06T07:08:00.106Z,67.40
2023-04-06T07:10:26.856Z,66.80
2023-04-06T07:12:53.489Z,67.80
2023-04-06T07:15:20.068Z,67.40
2023-04-06T07:17:46.759Z,67.10
2023-04-06T07:20:13.397Z,66.40
2023-04-06T07:22:39.956Z,66.50
2023-04-06T07:25:06.622Z,66.00
2023-04-06T07:27:33.204Z,65.90
2023-04-06T07:29:59.763Z,65.00
2023-04-06T07:32:26.556Z,64.00
2023-04-06T07:34:53.118Z,65.80
2023-04-06T07:37:19.873Z,66.30
2023-04-06T07:39:46.421Z,65.60
2023-04-06T07:42:13.017Z,63.00
2023-04-06T07:44:39.601Z,64.20
2023-04-06T07:47:06.171Z,62.80
2023-04-06T07:49:32.732Z,63.00
2023-04-06T07:51:59.388Z,63.30
2023-04-06T07:54:26.037Z,62.40
2023-04-06T07:56:52.853Z,62.30
2023-04-06T07:59:19.484Z,61.00
2023-04-06T08:01:46.097Z,60.00
2023-04-06T08:04:13.830Z,60.90
2023-04-06T08:06:42.014Z,59.60
2023-04-06T08:09:08.647Z,60.10
2023-04-06T08:11:35.230Z,59.40
2023-04-06T08:14:02.103Z,59.00
2023-04-06T08:16:28.803Z,58.20
2023-04-06T08:18:55.443Z,58.80
2023-04-06T08:21:22.127Z,58.60
2023-04-06T08:23:49.141Z,58.10
2023-04-06T08:26:16.810Z,57.80
2023-04-06T08:28:45.698Z,58.10
2023-04-06T08:31:14.299Z,56.10
2023-04-06T08:33:41.260Z,56.00
2023-04-06T08:36:08.462Z,55.70
2023-04-06T08:38:35.616Z,56.20
2023-04-06T08:41:02.700Z,56.70
2023-04-06T08:43:30.347Z,56.30
2023-04-06T08:45:58.203Z,54.60
2023-04-06T08:48:24.926Z,54.70
2023-04-06T08:50:52.387Z,55.70
2023-04-06T08:53:20.317Z,54.10
2023-04-06T08:55:48.844Z,55.40
2023-04-06T08:58:24.306Z,54.90
2023-04-06T09:00:58.460Z,55.40
2023-04-06T09:03:25.250Z,53.80
2023-04-06T09:05:52.354Z,54.10
2023-04-06T09:08:19.413Z,55.50
2023-04-06T09:10:46.400Z,54.30
2023-04-06T09:13:13.724Z,53.00
2023-04-06T09:15:40.938Z,52.90
2023-04-06T09:18:08.534Z,54.70
2023-04-06T09:20:35.639Z,53.40
2023-04-06T09:23:02.851Z,51.90
2023-04-06T09:25:29.967Z,53.20
2023-04-06T09:27:58.732Z,53.70
2023-04-06T09:30:25.945Z,53.60
2023-04-06T09:32:53.138Z,54.40
2023-04-06T09:35:20.064Z,53.70
2023-04-06T09:37:47.113Z,52.00
2023-04-06T09:40:14.541Z,54.10
2023-04-06T09:42:41.245Z,52.30
2023-04-06T09:45:08.341Z,52.80
2023-04-06T09:47:35.358Z,54.20
2023-04-06T09:50:02.561Z,51.60
2023-04-06T09:52:29.358Z,52.20
2023-04-06T09:54:56.815Z,54.10
2023-04-06T09:57:23.857Z,52.60
2023-04-06T09:59:51.469Z,52.50
2023-04-06T10:02:19.318Z,52.90
2023-04-06T10:04:46.590Z,52.30
2023-04-06T10:07:13.996Z,51.40
2023-04-06T10:09:41.285Z,51.40
2023-04-06T10:12:08.316Z,52.20
2023-04-06T10:14:35.444Z,51.40
2023-04-06T10:17:03.331Z,50.70
2023-04-06T10:19:30.205Z,50.70
2023-04-06T10:21:57.605Z,51.60
2023-04-06T10:24:24.593Z,50.60
2023-04-06T10:26:51.856Z,49.10
2023-04-06T10:29:18.923Z,52.00
2023-04-06T10:31:46.158Z,51.70
2023-04-06T10:34:13.395Z,50.80
2023-04-06T10:36:40.525Z,49.80
2023-04-06T10:39:07.510Z,51.90
2023-04-06T10:41:34.490Z,50.50
2023-04-06T10:44:02.832Z,50.20
2023-04-06T10:46:29.985Z,49.90
2023-04-06T10:48:56.854Z,49.70
2023-04-06T10:51:23.747Z,48.20
2023-04-06T10:53:50.930Z,48.30
2023-04-06T10:56:17.844Z,50.10
2023-04-06T10:58:45.164Z,48.80
2023-04-06T11:01:12.510Z,48.90
2023-04-06T11:03:39.608Z,47.40
2023-04-06T11:06:06.421Z,49.40
2023-04-06T11:08:33.493Z,50.60
2023-04-06T11:11:00.467Z,49.50
2023-04-06T11:13:28.026Z,49.10
2023-04-06T11:15:55.004Z,50.10
2023-04-06T11:18:21.825Z,47.20
2023-04-06T11:20:49.000Z,47.00
2023-04-06T11:23:16.198Z,47.80
2023-04-06T11:25:43.424Z,48.20
2023-04-06T11:28:10.356Z,49.40
2023-04-06T11:30:38.196Z,46.10
2023-04-06T11:33:05.704Z,46.50
2023-04-06T11:35:32.478Z,47.40
2023-04-06T11:38:00.549Z,48.90
2023-04-06T11:40:27.918Z,46.50
2023-04-06T11:42:55.001Z,48.70
2023-04-06T11:45:22.236Z,47.50
2023-04-06T11:47:49.253Z,47.20
2023-04-06T11:50:16.420Z,48.10
2023-04-06T11:52:43.580Z,47.80
2023-04-06T11:55:10.815Z,46.80
2023-04-06T11:57:37.845Z,48.00
2023-04-06T12:00:04.466Z,47.60
2023-04-06T12:02:33.709Z,46.40
2023-04-06T12:05:00.934Z,46.60
2023-04-06T12:07:28.278Z,46.70
2023-04-06T12:09:55.341Z,46.20
2023-04-06T12:12:22.775Z,45.40
2023-04-06T12:14:49.932Z,46.70
2023-04-06T12:17:17.245Z,46.70
2023-04-06T12:19:44.196Z,45.40
2023-04-06T12:22:11.615Z,46.40
2023-04-06T12:24:38.777Z,45.10
2023-04-06T12:27:09.991Z,46.50
2023-04-06T12:29:38.030Z,47.20
2023-04-06T12:32:05.314Z,46.10
2023-04-06T12:34:33.310Z,46.60
2023-04-06T12:37:00.847Z,46.30
2023-04-06T12:39:27.905Z,46.40
2023-04-06T12:41:55.309Z,45.40
2023-04-06T12:44:23.681Z,46.30
2023-04-06T12:46:52.938Z,45.70
2023-04-06T12:49:19.935Z,44.50
2023-04-06T12:51:47.285Z,45.70
2023-04-06T12:54:14.317Z,44.40
2023-04-06T12:56:41.593Z,45.20
2023-04-06T12:59:08.699Z,45.40
2023-04-06T13:01:37.079Z,45.50
2023-04-06T13:04:04.194Z,45.60
2023-04-06T13:06:31.105Z,46.20
2023-04-06T13:08:58.420Z,46.30
2023-04-06T13:11:27.012Z,46.30
2023-04-06T13:13:55.619Z,44.70
2023-04-06T13:16:23.150Z,45.00
2023-04-06T13:18:50.264Z,45.60
2023-04-06T13:21:17.270Z,45.40
2023-04-06T13:23:44.547Z,44.80
2023-04-06T13:26:11.519Z,45.20
2023-04-06T13:28:38.391Z,45.50
2023-04-06T13:31:06.630Z,44.80
2023-04-06T13:33:33.664Z,44.80
2023-04-06T13:36:01.396Z,44.80
2023-04-06T13:38:28.678Z,44.90
2023-04-06T13:40:55.822Z,44.70
2023-04-06T13:43:22.727Z,44.50
2023-04-06T13:45:49.878Z,45.40
2023-04-06T13:48:16.970Z,45.00
2023-04-06T13:50:43.986Z,45.00
2023-04-06T13:53:11.937Z,44.40
2023-04-06T13:55:38.943Z,44.80
2023-04-06T13:58:05.510Z,44.50
2023-04-06T14:00:32.179Z,44.20
2023-04-06T14:02:58.829Z,43.30
2023-04-06T14:05:25.406Z,44.20
2023-04-06T14:07:51.961Z,46.10
2023-04-06T14:10:18.506Z,44.20
2023-04-06T14:12:45.118Z,44.20
2023-04-06T14:15:11.764Z,45.30
2023-04-06T14:17:38.387Z,44.70
2023-04-06T14:20:04.945Z,44.60
2023-04-06T14:22:31.540Z,44.70
2023-04-06T14:24:58.100Z,45.10
2023-04-06T14:27:24.676Z,45.10
2023-04-06T14:29:51.269Z,44.10
2023-04-06T14:32:17.834Z,43.70
2023-04-06T14:34:44.424Z,43.50
2023-04-06T14:37:11.032Z,44.00
2023-04-06T14:39:37.630Z,43.90
2023-04-06T14:42:04.179Z,44.80
2023-04-06T14:44:30.750Z,44.90
2023-04-06T14:46:57.744Z,44.50
2023-04-06T14:49:24.345Z,45.20
2023-04-06T14:51:50.906Z,43.70
2023-04-06T14:54:17.436Z,44.70
2023-04-06T14:56:44.046Z,44.80
2023-04-06T14:59:10.670Z,44.80
2023-04-06T15:01:37.327Z,43.90
2023-04-06T15:04:04.116Z,43.50
2023-04-06T15:06:30.828Z,43.50
2023-04-06T15:08:57.440Z,43.00
2023-04-06T15:11:24.007Z,43.80
2023-04-06T15:13:50.584Z,44.20
2023-04-06T15:16:17.211Z,44.10
2023-04-06T15:18:43.923Z,43.80
2023-04-06T15:21:11.581Z,43.70
2023-04-06T15:23:38.291Z,44.00
2023-04-06T15:26:04.844Z,43.30
2023-04-06T15:28:31.403Z,43.50
2023-04-06T15:30:58.055Z,42.30
2023-04-06T15:33:24.681Z,43.90
2023-04-06T15:35:51.278Z,44.40
2023-04-06T15:38:17.886Z,45.00
2023-04-06T15:40:44.440Z,44.30
2023-04-06T15:43:10.985Z,44.60
2023-04-06T15:45:37.568Z,44.80
2023-04-06T15:48:05.372Z,43.80
2023-04-06T15:50:33.580Z,43.80
2023-04-06T15:53:00.287Z,43.80
2023-04-06T15:55:26.842Z,44.80
2023-04-06T15:57:53.388Z,43.60
2023-04-06T16:00:19.959Z,45.00
2023-04-06T16:02:46.813Z,44.70
2023-04-06T16:05:13.479Z,44.90
2023-04-06T16:07:40.079Z,43.80
2023-04-06T16:10:06.660Z,44.20
2023-04-06T16:12:33.355Z,43.90
2023-04-06T16:14:59.924Z,43.70
2023-04-06T16:17:26.522Z,43.40
2023-04-06T16:19:53.093Z,44.00
2023-04-06T16:22:19.651Z,43.70
2023-04-06T16:24:46.222Z,43.80
2023-04-06T16:27:12.765Z,44.40
2023-04-06T16:29:39.395Z,43.30
2023-04-06T16:32:06.085Z,43.80
2023-04-06T16:34:32.873Z,44.30
2023-04-06T16:36:59.498Z,44.10
2023-04-06T16:39:26.159Z,43.40
2023-04-06T16:41:52.705Z,44.30
2023-04-06T16:44:20.311Z,44.10
2023-04-06T16:46:46.895Z,44.80
2023-04-06T16:49:13.451Z,44.40
2023-04-06T16:51:40.922Z,44.80
2023-04-06T16:54:07.656Z,45.10
2023-04-06T16:56:34.283Z,45.20
2023-04-06T16:59:00.868Z,44.80
2023-04-06T17:01:27.557Z,44.40
2023-04-06T17:03:54.348Z,44.60
2023-04-06T17:06:20.965Z,44.80
2023-04-06T17:08:47.705Z,44.90
2023-04-06T17:11:16.081Z,45.50
2023-04-06T17:13:44.571Z,45.20
2023-04-06T17:16:11.134Z,45.40
2023-04-06T17:18:37.977Z,45.90
2023-04-06T17:21:04.645Z,45.50
2023-04-06T17:23:31.230Z,45.80
2023-04-06T17:25:57.930Z,45.90
2023-04-06T17:28:24.543Z,46.20
2023-04-06T17:30:51.143Z,45.60
2023-04-06T17:33:17.725Z,45.90
2023-04-06T17:35:44.355Z,45.80
2023-04-06T17:38:10.901Z,46.00
2023-04-06T17:40:37.444Z,46.70
2023-04-06T17:43:04.098Z,46.50
2023-04-06T17:45:30.738Z,46.40
2023-04-06T17:47:58.363Z,46.70
2023-04-06T17:50:25.106Z,47.20
2023-04-06T17:52:51.697Z,47.30
2023-04-06T17:55:18.412Z,47.50
2023-04-06T17:57:45.112Z,47.20
2023-04-06T18:00:11.696Z,47.40
2023-04-06T18:02:38.538Z,47.50
2023-04-06T18:05:05.313Z,47.80
2023-04-06T18:07:31.924Z,47.70
2023-04-06T18:09:58.532Z,48.10
2023-04-06T18:12:25.081Z,47.70
2023-04-06T18:14:51.646Z,47.90
2023-04-06T18:17:18.280Z,48.50
2023-04-06T18:19:44.900Z,48.90
2023-04-06T18:22:11.434Z,48.50
2023-04-06T18:24:42.514Z,48.10
2023-04-06T18:27:09.727Z,48.60
2023-04-06T18:29:36.362Z,49.10
2023-04-06T18:32:02.947Z,48.80
2023-04-06T18:34:29.616Z,49.50
2023-04-06T18:36:56.305Z,49.20
2023-04-06T18:39:23.007Z,49.70
2023-04-06T18:41:49.585Z,49.70
2023-04-06T18:44:16.147Z,49.50
2023-04-06T18:46:42.732Z,49.60
2023-04-06T18:49:09.281Z,50.40
2023-04-06T18:51:35.896Z,49.70
2023-04-06T18:54:02.564Z,50.00
2023-04-06T18:56:29.113Z,50.00
2023-04-06T18:58:55.846Z,51.30
2023-04-06T19:01:22.538Z,51.00
2023-04-06T19:03:49.208Z,51.10
2023-04-06T19:06:15.910Z,50.90
2023-04-06T19:08:42.487Z,50.80
2023-04-06T19:11:09.082Z,52.10
2023-04-06T19:13:35.776Z,52.90
2023-04-06T19:16:02.376Z,53.10
2023-04-06T19:18:28.945Z,54.40
2023-04-06T19:20:55.469Z,53.40
2023-04-06T19:23:22.065Z,54.20
2023-04-06T19:25:48.678Z,54.30
2023-04-06T19:28:15.306Z,54.10
2023-04-06T19:30:41.874Z,53.70
2023-04-06T19:33:08.505Z,53.80
2023-04-06T19:35:35.070Z,53.80
2023-04-06T19:38:01.984Z,53.90
2023-04-06T19:40:28.606Z,53.90
2023-04-06T19:42:55.187Z,53.90
2023-04-06T19:45:21.753Z,54.80
2023-04-06T19:47:48.364Z,55.70
2023-04-06T19:50:14.925Z,55.30
2023-04-06T19:52:41.500Z,55.00
2023-04-06T19:55:08.056Z,55.40
2023-04-06T19:57:35.003Z,55.70
2023-04-06T20:00:01.601Z,55.70
2023-04-06T20:02:28.309Z,56.90
2023-04-06T20:04:55.824Z,56.00
2023-04-06T20:07:22.371Z,56.10
2023-04-06T20:09:48.942Z,55.90
2023-04-06T20:12:15.572Z,56.40
2023-04-06T20:14:42.162Z,57.10
2023-04-06T20:17:08.886Z,56.90
2023-04-06T20:19:36.331Z,56.70
2023-04-06T20:22:02.921Z,56.60
2023-04-06T20:24:29.456Z,56.80
2023-04-06T20:26:56.019Z,56.60
2023-04-06T20:29:22.579Z,56.90
2023-04-06T20:31:49.217Z,57.70
2023-04-06T20:34:16.233Z,56.90
2023-04-06T20:36:43.088Z,58.20
2023-04-06T20:39:09.648Z,58.00
2023-04-06T20:41:36.243Z,57.90
2023-04-06T20:44:02.765Z,57.60
2023-04-06T20:46:29.588Z,58.10
2023-04-06T20:48:56.209Z,58.00
2023-04-06T20:51:23.818Z,58.00
2023-04-06T20:53:50.404Z,58.80
2023-04-06T20:56:17.072Z,58.80
2023-04-06T20:58:43.636Z,58.10
2023-04-06T21:01:10.292Z,58.20
2023-04-06T21:03:36.947Z,58.40
2023-04-06T21:06:03.571Z,59.40
2023-04-06T21:08:30.130Z,58.70
2023-04-06T21:10:56.814Z,59.50
2023-04-06T21:13:23.398Z,60.20
2023-04-06T21:15:49.979Z,59.50
2023-04-06T21:18:16.592Z,59.20
2023-04-06T21:20:44.444Z,59.70
2023-04-06T21:23:11.100Z,59.30
2023-04-06T21:25:37.735Z,59.90
2023-04-06T21:28:04.289Z,60.20
2023-04-06T21:30:30.833Z,60.60
2023-04-06T21:32:57.430Z,61.10
2023-04-06T21:35:24.042Z,61.50
2023-04-06T21:37:50.628Z,62.10
2023-04-06T21:40:17.193Z,62.90
2023-04-06T21:42:43.752Z,64.10
2023-04-06T21:45:10.309Z,63.40
2023-04-06T21:47:36.915Z,63.60
2023-04-06T21:50:03.506Z,63.40
2023-04-06T21:52:30.083Z,64.10
2023-04-06T21:54:56.639Z,64.50
2023-04-06T21:57:23.238Z,65.20
2023-04-06T21:59:49.858Z,65.50
2023-04-06T22:02:16.516Z,64.60
2023-04-06T22:04:43.263Z,64.20
2023-04-06T22:07:09.913Z,64.30
2023-04-06T22:09:36.518Z,64.30
2023-04-06T22:12:03.087Z,64.90
2023-04-06T22:14:29.657Z,66.10
2023-04-06T22:16:56.237Z,65.50
2023-04-06T22:19:22.789Z,65.90
2023-04-06T22:21:49.358Z,64.50
2023-04-06T22:24:15.959Z,64.90
2023-04-06T22:26:42.610Z,64.80
2023-04-06T22:29:09.164Z,64.90
2023-04-06T22:31:35.773Z,64.70
2023-04-06T22:34:02.854Z,65.20
2023-04-06T22:36:29.438Z,65.20
2023-04-06T22:38:55.985Z,66.60
2023-04-06T22:41:22.589Z,66.80
2023-04-06T22:43:49.129Z,66.40
2023-04-06T22:46:15.891Z,67.10
2023-04-06T22:48:42.504Z,66.80
2023-04-06T22:51:09.120Z,67.80
2023-04-06T22:53:35.690Z,66.90
2023-04-06T22:56:02.229Z,66.90
2023-04-06T22:58:28.800Z,67.20
2023-04-06T23:00:55.391Z,66.70
2023-04-06T23:03:22.023Z,66.90
2023-04-06T23:05:48.632Z,67.40
2023-04-06T23:08:15.289Z,66.60
2023-04-06T23:10:44.133Z,67.20
2023-04-06T23:13:10.696Z,67.60
2023-04-06T23:15:37.250Z,68.00
2023-04-06T23:18:03.909Z,68.40
2023-04-06T23:20:30.589Z,69.70
2023-04-06T23:22:57.170Z,69.50
2023-04-06T23:25:23.785Z,69.10
2023-04-06T23:27:50.345Z,70.10
2023-04-06T23:30:16.941Z,70.20
2023-04-06T23:32:43.712Z,70.50
2023-04-06T23:35:10.622Z,70.30
2023-04-06T23:37:37.191Z,69.30
2023-04-06T23:40:03.790Z,69.40
2023-04-06T23:42:30.377Z,69.00
2023-04-06T23:44:59.209Z,68.70
2023-04-06T23:47:25.852Z,69.80
2023-04-06T23:49:52.477Z,69.60
2023-04-06T23:52:19.047Z,69.80
2023-04-06T23:54:45.747Z,72.00
2023-04-06T23:57:12.315Z,72.30
2023-04-06T23:59:38.850Z,73.60
